<?xml version="1.0" encoding="UTF-8" standalone="no" ?>
<gpx xmlns="http://www.topografix.com/GPX/1/1" xmlns:xsi="http://www.w3.org/2001/XMLSchema-instance" xsi:schemaLocation="http://www.topografix.com/GPX/1/1 http://www.topografix.com/GPX/1/1/gpx.xsd" version="1.1" creator="VisuGPX - https://www.visugpx.com">
  <metadata>
    <name>Boucle du BASSAC</name>
    <desc><![CDATA[Circuit d'entrainement à Colomiers]]></desc>
  </metadata>
  <trk>
    <name><![CDATA[2016-11-20 16:05:00]]></name>
    <trkseg>
      <trkpt lat="43.61519" lon="1.31136">
        <ele>179.9</ele>
        <time>2016-10-12T12:30:05Z</time>
      </trkpt>
      <trkpt lat="43.61518" lon="1.31137">
        <ele>180.38</ele>
        <time>2016-10-12T12:30:28Z</time>
      </trkpt>
      <trkpt lat="43.61514" lon="1.31142">
        <ele>178.46</ele>
        <time>2016-10-12T12:30:41Z</time>
      </trkpt>
      <trkpt lat="43.6152" lon="1.31133">
        <ele>178.46</ele>
        <time>2016-10-12T12:31:01Z</time>
      </trkpt>
      <trkpt lat="43.61519" lon="1.31131">
        <ele>179.9</ele>
        <time>2016-10-12T12:31:30Z</time>
      </trkpt>
      <trkpt lat="43.61512" lon="1.31139">
        <ele>178.94</ele>
        <time>2016-10-12T12:31:45Z</time>
      </trkpt>
      <trkpt lat="43.61513" lon="1.31138">
        <ele>175.58</ele>
        <time>2016-10-12T12:31:58Z</time>
      </trkpt>
      <trkpt lat="43.61514" lon="1.31137">
        <ele>175.58</ele>
        <time>2016-10-12T12:32:22Z</time>
      </trkpt>
      <trkpt lat="43.61516" lon="1.31137">
        <ele>176.06</ele>
        <time>2016-10-12T12:32:48Z</time>
      </trkpt>
      <trkpt lat="43.61517" lon="1.31138">
        <ele>177.02</ele>
        <time>2016-10-12T12:33:19Z</time>
      </trkpt>
      <trkpt lat="43.61518" lon="1.31136">
        <ele>177.98</ele>
        <time>2016-10-12T12:33:40Z</time>
      </trkpt>
      <trkpt lat="43.6152" lon="1.31133">
        <ele>180.38</ele>
        <time>2016-10-12T12:34:05Z</time>
      </trkpt>
      <trkpt lat="43.61519" lon="1.31133">
        <ele>179.9</ele>
        <time>2016-10-12T12:34:27Z</time>
      </trkpt>
      <trkpt lat="43.61519" lon="1.31133">
        <ele>180.87</ele>
        <time>2016-10-12T12:34:49Z</time>
      </trkpt>
      <trkpt lat="43.61518" lon="1.31133">
        <ele>180.87</ele>
        <time>2016-10-12T12:35:24Z</time>
      </trkpt>
      <trkpt lat="43.61519" lon="1.31135">
        <ele>181.35</ele>
        <time>2016-10-12T12:35:44Z</time>
      </trkpt>
      <trkpt lat="43.61519" lon="1.31135">
        <ele>181.35</ele>
        <time>2016-10-12T12:36:08Z</time>
      </trkpt>
      <trkpt lat="43.61517" lon="1.31134">
        <ele>179.9</ele>
        <time>2016-10-12T12:36:20Z</time>
      </trkpt>
      <trkpt lat="43.61519" lon="1.31135">
        <ele>173.66</ele>
        <time>2016-10-12T12:37:48Z</time>
      </trkpt>
      <trkpt lat="43.61519" lon="1.31135">
        <ele>187.59</ele>
        <time>2016-10-12T13:15:35Z</time>
      </trkpt>
      <trkpt lat="43.61518" lon="1.31128">
        <ele>185.19</ele>
        <time>2016-10-12T13:15:36Z</time>
      </trkpt>
      <trkpt lat="43.61519" lon="1.31135">
        <ele>189.04</ele>
        <time>2016-11-20T13:59:21Z</time>
      </trkpt>
      <trkpt lat="43.61493" lon="1.31158">
        <ele>187.11</ele>
        <time>2016-11-20T13:59:53Z</time>
      </trkpt>
      <trkpt lat="43.61494" lon="1.31159">
        <ele>185.19</ele>
        <time>2016-11-20T14:00:02Z</time>
      </trkpt>
      <trkpt lat="43.61494" lon="1.31162">
        <ele>185.19</ele>
        <time>2016-11-20T14:00:04Z</time>
      </trkpt>
      <trkpt lat="43.61494" lon="1.31166">
        <ele>185.19</ele>
        <time>2016-11-20T14:00:05Z</time>
      </trkpt>
      <trkpt lat="43.6151" lon="1.31206">
        <ele>185.19</ele>
        <time>2016-11-20T14:00:17Z</time>
      </trkpt>
      <trkpt lat="43.61538" lon="1.31219">
        <ele>185.67</ele>
        <time>2016-11-20T14:00:28Z</time>
      </trkpt>
      <trkpt lat="43.61568" lon="1.31234">
        <ele>190.48</ele>
        <time>2016-11-20T14:00:40Z</time>
      </trkpt>
      <trkpt lat="43.61606" lon="1.31245">
        <ele>189.04</ele>
        <time>2016-11-20T14:00:54Z</time>
      </trkpt>
      <trkpt lat="43.61634" lon="1.31236">
        <ele>186.63</ele>
        <time>2016-11-20T14:01:05Z</time>
      </trkpt>
      <trkpt lat="43.61658" lon="1.31213">
        <ele>185.67</ele>
        <time>2016-11-20T14:01:16Z</time>
      </trkpt>
      <trkpt lat="43.61681" lon="1.31208">
        <ele>184.71</ele>
        <time>2016-11-20T14:01:26Z</time>
      </trkpt>
      <trkpt lat="43.6171" lon="1.31206">
        <ele>184.23</ele>
        <time>2016-11-20T14:01:37Z</time>
      </trkpt>
      <trkpt lat="43.61732" lon="1.31187">
        <ele>182.31</ele>
        <time>2016-11-20T14:01:48Z</time>
      </trkpt>
      <trkpt lat="43.61757" lon="1.31175">
        <ele>181.35</ele>
        <time>2016-11-20T14:01:59Z</time>
      </trkpt>
      <trkpt lat="43.61795" lon="1.3117">
        <ele>180.38</ele>
        <time>2016-11-20T14:02:13Z</time>
      </trkpt>
      <trkpt lat="43.61831" lon="1.31158">
        <ele>178.46</ele>
        <time>2016-11-20T14:02:27Z</time>
      </trkpt>
      <trkpt lat="43.61864" lon="1.31141">
        <ele>174.62</ele>
        <time>2016-11-20T14:02:39Z</time>
      </trkpt>
      <trkpt lat="43.61899" lon="1.31128">
        <ele>172.69</ele>
        <time>2016-11-20T14:02:52Z</time>
      </trkpt>
      <trkpt lat="43.61931" lon="1.31115">
        <ele>171.25</ele>
        <time>2016-11-20T14:03:05Z</time>
      </trkpt>
      <trkpt lat="43.61965" lon="1.31103">
        <ele>170.77</ele>
        <time>2016-11-20T14:03:18Z</time>
      </trkpt>
      <trkpt lat="43.61991" lon="1.31099">
        <ele>170.77</ele>
        <time>2016-11-20T14:03:31Z</time>
      </trkpt>
      <trkpt lat="43.62005" lon="1.31101">
        <ele>169.81</ele>
        <time>2016-11-20T14:03:44Z</time>
      </trkpt>
      <trkpt lat="43.62017" lon="1.31107">
        <ele>170.29</ele>
        <time>2016-11-20T14:03:54Z</time>
      </trkpt>
      <trkpt lat="43.62018" lon="1.31109">
        <ele>170.29</ele>
        <time>2016-11-20T14:03:55Z</time>
      </trkpt>
      <trkpt lat="43.62046" lon="1.31129">
        <ele>171.25</ele>
        <time>2016-11-20T14:04:07Z</time>
      </trkpt>
      <trkpt lat="43.62067" lon="1.31147">
        <ele>172.69</ele>
        <time>2016-11-20T14:04:22Z</time>
      </trkpt>
      <trkpt lat="43.62071" lon="1.31156">
        <ele>171.73</ele>
        <time>2016-11-20T14:04:25Z</time>
      </trkpt>
      <trkpt lat="43.62072" lon="1.31159">
        <ele>171.73</ele>
        <time>2016-11-20T14:04:26Z</time>
      </trkpt>
      <trkpt lat="43.62074" lon="1.31161">
        <ele>171.73</ele>
        <time>2016-11-20T14:04:27Z</time>
      </trkpt>
      <trkpt lat="43.62077" lon="1.31164">
        <ele>171.25</ele>
        <time>2016-11-20T14:04:28Z</time>
      </trkpt>
      <trkpt lat="43.62079" lon="1.31167">
        <ele>171.25</ele>
        <time>2016-11-20T14:04:29Z</time>
      </trkpt>
      <trkpt lat="43.62081" lon="1.3117">
        <ele>171.25</ele>
        <time>2016-11-20T14:04:30Z</time>
      </trkpt>
      <trkpt lat="43.62082" lon="1.31173">
        <ele>171.25</ele>
        <time>2016-11-20T14:04:31Z</time>
      </trkpt>
      <trkpt lat="43.62083" lon="1.31177">
        <ele>171.25</ele>
        <time>2016-11-20T14:04:32Z</time>
      </trkpt>
      <trkpt lat="43.62084" lon="1.31181">
        <ele>171.25</ele>
        <time>2016-11-20T14:04:33Z</time>
      </trkpt>
      <trkpt lat="43.62085" lon="1.31185">
        <ele>171.25</ele>
        <time>2016-11-20T14:04:34Z</time>
      </trkpt>
      <trkpt lat="43.62086" lon="1.31189">
        <ele>171.25</ele>
        <time>2016-11-20T14:04:35Z</time>
      </trkpt>
      <trkpt lat="43.62091" lon="1.31228">
        <ele>170.77</ele>
        <time>2016-11-20T14:04:45Z</time>
      </trkpt>
      <trkpt lat="43.6208" lon="1.31267">
        <ele>169.81</ele>
        <time>2016-11-20T14:04:56Z</time>
      </trkpt>
      <trkpt lat="43.6207" lon="1.313">
        <ele>169.33</ele>
        <time>2016-11-20T14:05:05Z</time>
      </trkpt>
      <trkpt lat="43.62066" lon="1.31335">
        <ele>169.33</ele>
        <time>2016-11-20T14:05:15Z</time>
      </trkpt>
      <trkpt lat="43.62059" lon="1.3136">
        <ele>168.85</ele>
        <time>2016-11-20T14:05:23Z</time>
      </trkpt>
      <trkpt lat="43.6206" lon="1.31363">
        <ele>168.85</ele>
        <time>2016-11-20T14:05:24Z</time>
      </trkpt>
      <trkpt lat="43.62062" lon="1.31365">
        <ele>168.85</ele>
        <time>2016-11-20T14:05:25Z</time>
      </trkpt>
      <trkpt lat="43.62064" lon="1.31367">
        <ele>168.85</ele>
        <time>2016-11-20T14:05:26Z</time>
      </trkpt>
      <trkpt lat="43.62066" lon="1.31367">
        <ele>168.85</ele>
        <time>2016-11-20T14:05:27Z</time>
      </trkpt>
      <trkpt lat="43.62069" lon="1.31367">
        <ele>168.37</ele>
        <time>2016-11-20T14:05:28Z</time>
      </trkpt>
      <trkpt lat="43.62072" lon="1.31367">
        <ele>168.37</ele>
        <time>2016-11-20T14:05:29Z</time>
      </trkpt>
      <trkpt lat="43.62074" lon="1.31366">
        <ele>168.37</ele>
        <time>2016-11-20T14:05:30Z</time>
      </trkpt>
      <trkpt lat="43.62106" lon="1.3136">
        <ele>167.89</ele>
        <time>2016-11-20T14:05:41Z</time>
      </trkpt>
      <trkpt lat="43.62135" lon="1.31348">
        <ele>167.41</ele>
        <time>2016-11-20T14:05:51Z</time>
      </trkpt>
      <trkpt lat="43.6217" lon="1.31338">
        <ele>165.48</ele>
        <time>2016-11-20T14:06:04Z</time>
      </trkpt>
      <trkpt lat="43.622" lon="1.31331">
        <ele>163.56</ele>
        <time>2016-11-20T14:06:15Z</time>
      </trkpt>
      <trkpt lat="43.62231" lon="1.31318">
        <ele>160.2</ele>
        <time>2016-11-20T14:06:26Z</time>
      </trkpt>
      <trkpt lat="43.62266" lon="1.313">
        <ele>154.43</ele>
        <time>2016-11-20T14:06:40Z</time>
      </trkpt>
      <trkpt lat="43.62305" lon="1.31285">
        <ele>147.7</ele>
        <time>2016-11-20T14:06:55Z</time>
      </trkpt>
      <trkpt lat="43.62346" lon="1.31272">
        <ele>143.85</ele>
        <time>2016-11-20T14:07:10Z</time>
      </trkpt>
      <trkpt lat="43.62381" lon="1.31244">
        <ele>144.34</ele>
        <time>2016-11-20T14:07:25Z</time>
      </trkpt>
      <trkpt lat="43.62412" lon="1.31228">
        <ele>144.34</ele>
        <time>2016-11-20T14:07:38Z</time>
      </trkpt>
      <trkpt lat="43.62449" lon="1.31212">
        <ele>144.34</ele>
        <time>2016-11-20T14:07:52Z</time>
      </trkpt>
      <trkpt lat="43.62478" lon="1.31206">
        <ele>144.34</ele>
        <time>2016-11-20T14:08:04Z</time>
      </trkpt>
      <trkpt lat="43.62515" lon="1.31205">
        <ele>143.85</ele>
        <time>2016-11-20T14:08:20Z</time>
      </trkpt>
      <trkpt lat="43.62554" lon="1.3119">
        <ele>143.85</ele>
        <time>2016-11-20T14:08:37Z</time>
      </trkpt>
      <trkpt lat="43.62584" lon="1.31178">
        <ele>143.85</ele>
        <time>2016-11-20T14:08:49Z</time>
      </trkpt>
      <trkpt lat="43.62629" lon="1.31161">
        <ele>144.34</ele>
        <time>2016-11-20T14:09:07Z</time>
      </trkpt>
      <trkpt lat="43.62669" lon="1.31139">
        <ele>144.82</ele>
        <time>2016-11-20T14:09:26Z</time>
      </trkpt>
      <trkpt lat="43.62702" lon="1.31117">
        <ele>144.82</ele>
        <time>2016-11-20T14:09:39Z</time>
      </trkpt>
      <trkpt lat="43.62724" lon="1.31087">
        <ele>144.82</ele>
        <time>2016-11-20T14:09:48Z</time>
      </trkpt>
      <trkpt lat="43.62749" lon="1.31057">
        <ele>144.34</ele>
        <time>2016-11-20T14:10:01Z</time>
      </trkpt>
      <trkpt lat="43.62783" lon="1.31047">
        <ele>144.34</ele>
        <time>2016-11-20T14:10:13Z</time>
      </trkpt>
      <trkpt lat="43.62803" lon="1.31036">
        <ele>144.34</ele>
        <time>2016-11-20T14:10:23Z</time>
      </trkpt>
      <trkpt lat="43.62805" lon="1.31034">
        <ele>144.34</ele>
        <time>2016-11-20T14:10:24Z</time>
      </trkpt>
      <trkpt lat="43.62819" lon="1.31025">
        <ele>144.34</ele>
        <time>2016-11-20T14:10:30Z</time>
      </trkpt>
      <trkpt lat="43.62821" lon="1.31022">
        <ele>144.34</ele>
        <time>2016-11-20T14:10:31Z</time>
      </trkpt>
      <trkpt lat="43.62855" lon="1.30987">
        <ele>144.34</ele>
        <time>2016-11-20T14:10:45Z</time>
      </trkpt>
      <trkpt lat="43.62878" lon="1.30954">
        <ele>144.34</ele>
        <time>2016-11-20T14:10:57Z</time>
      </trkpt>
      <trkpt lat="43.62892" lon="1.30911">
        <ele>144.34</ele>
        <time>2016-11-20T14:11:10Z</time>
      </trkpt>
      <trkpt lat="43.62909" lon="1.30873">
        <ele>144.82</ele>
        <time>2016-11-20T14:11:22Z</time>
      </trkpt>
      <trkpt lat="43.62943" lon="1.30836">
        <ele>144.34</ele>
        <time>2016-11-20T14:11:37Z</time>
      </trkpt>
      <trkpt lat="43.62968" lon="1.3081">
        <ele>143.85</ele>
        <time>2016-11-20T14:11:49Z</time>
      </trkpt>
      <trkpt lat="43.63003" lon="1.30781">
        <ele>143.37</ele>
        <time>2016-11-20T14:12:05Z</time>
      </trkpt>
      <trkpt lat="43.63041" lon="1.30755">
        <ele>143.37</ele>
        <time>2016-11-20T14:12:23Z</time>
      </trkpt>
      <trkpt lat="43.63085" lon="1.30737">
        <ele>143.37</ele>
        <time>2016-11-20T14:12:40Z</time>
      </trkpt>
      <trkpt lat="43.63126" lon="1.30727">
        <ele>143.37</ele>
        <time>2016-11-20T14:12:56Z</time>
      </trkpt>
      <trkpt lat="43.63148" lon="1.30726">
        <ele>142.89</ele>
        <time>2016-11-20T14:13:10Z</time>
      </trkpt>
      <trkpt lat="43.63188" lon="1.30709">
        <ele>142.41</ele>
        <time>2016-11-20T14:13:28Z</time>
      </trkpt>
      <trkpt lat="43.63192" lon="1.30707">
        <ele>142.41</ele>
        <time>2016-11-20T14:13:29Z</time>
      </trkpt>
      <trkpt lat="43.63196" lon="1.30706">
        <ele>142.41</ele>
        <time>2016-11-20T14:13:30Z</time>
      </trkpt>
      <trkpt lat="43.63201" lon="1.30706">
        <ele>142.41</ele>
        <time>2016-11-20T14:13:31Z</time>
      </trkpt>
      <trkpt lat="43.63205" lon="1.30706">
        <ele>142.41</ele>
        <time>2016-11-20T14:13:32Z</time>
      </trkpt>
      <trkpt lat="43.63209" lon="1.30708">
        <ele>142.41</ele>
        <time>2016-11-20T14:13:33Z</time>
      </trkpt>
      <trkpt lat="43.63213" lon="1.30709">
        <ele>142.41</ele>
        <time>2016-11-20T14:13:34Z</time>
      </trkpt>
      <trkpt lat="43.63217" lon="1.30707">
        <ele>142.41</ele>
        <time>2016-11-20T14:13:35Z</time>
      </trkpt>
      <trkpt lat="43.6322" lon="1.30706">
        <ele>142.41</ele>
        <time>2016-11-20T14:13:36Z</time>
      </trkpt>
      <trkpt lat="43.63224" lon="1.30707">
        <ele>142.41</ele>
        <time>2016-11-20T14:13:37Z</time>
      </trkpt>
      <trkpt lat="43.63227" lon="1.30708">
        <ele>141.93</ele>
        <time>2016-11-20T14:13:38Z</time>
      </trkpt>
      <trkpt lat="43.63229" lon="1.30709">
        <ele>142.41</ele>
        <time>2016-11-20T14:13:39Z</time>
      </trkpt>
      <trkpt lat="43.63231" lon="1.30711">
        <ele>142.41</ele>
        <time>2016-11-20T14:13:40Z</time>
      </trkpt>
      <trkpt lat="43.63232" lon="1.30714">
        <ele>142.41</ele>
        <time>2016-11-20T14:13:41Z</time>
      </trkpt>
      <trkpt lat="43.63233" lon="1.30717">
        <ele>142.41</ele>
        <time>2016-11-20T14:13:42Z</time>
      </trkpt>
      <trkpt lat="43.63233" lon="1.3072">
        <ele>142.41</ele>
        <time>2016-11-20T14:13:43Z</time>
      </trkpt>
      <trkpt lat="43.63233" lon="1.30723">
        <ele>142.41</ele>
        <time>2016-11-20T14:13:44Z</time>
      </trkpt>
      <trkpt lat="43.63232" lon="1.30726">
        <ele>142.41</ele>
        <time>2016-11-20T14:13:45Z</time>
      </trkpt>
      <trkpt lat="43.63232" lon="1.3073">
        <ele>142.41</ele>
        <time>2016-11-20T14:13:46Z</time>
      </trkpt>
      <trkpt lat="43.63232" lon="1.30734">
        <ele>142.41</ele>
        <time>2016-11-20T14:13:47Z</time>
      </trkpt>
      <trkpt lat="43.63244" lon="1.30764">
        <ele>142.41</ele>
        <time>2016-11-20T14:13:58Z</time>
      </trkpt>
      <trkpt lat="43.63254" lon="1.30782">
        <ele>141.93</ele>
        <time>2016-11-20T14:14:05Z</time>
      </trkpt>
      <trkpt lat="43.63275" lon="1.30765">
        <ele>142.41</ele>
        <time>2016-11-20T14:14:19Z</time>
      </trkpt>
      <trkpt lat="43.63299" lon="1.30766">
        <ele>141.93</ele>
        <time>2016-11-20T14:14:31Z</time>
      </trkpt>
      <trkpt lat="43.63326" lon="1.30794">
        <ele>142.89</ele>
        <time>2016-11-20T14:14:42Z</time>
      </trkpt>
      <trkpt lat="43.6335" lon="1.30825">
        <ele>143.85</ele>
        <time>2016-11-20T14:14:53Z</time>
      </trkpt>
      <trkpt lat="43.63375" lon="1.30856">
        <ele>142.89</ele>
        <time>2016-11-20T14:15:05Z</time>
      </trkpt>
      <trkpt lat="43.63397" lon="1.30886">
        <ele>143.37</ele>
        <time>2016-11-20T14:15:17Z</time>
      </trkpt>
      <trkpt lat="43.63419" lon="1.30916">
        <ele>143.85</ele>
        <time>2016-11-20T14:15:29Z</time>
      </trkpt>
      <trkpt lat="43.63445" lon="1.30935">
        <ele>144.82</ele>
        <time>2016-11-20T14:15:40Z</time>
      </trkpt>
      <trkpt lat="43.63468" lon="1.30952">
        <ele>146.74</ele>
        <time>2016-11-20T14:15:52Z</time>
      </trkpt>
      <trkpt lat="43.63499" lon="1.30964">
        <ele>146.74</ele>
        <time>2016-11-20T14:16:05Z</time>
      </trkpt>
      <trkpt lat="43.63526" lon="1.30988">
        <ele>146.26</ele>
        <time>2016-11-20T14:16:16Z</time>
      </trkpt>
      <trkpt lat="43.63545" lon="1.3101">
        <ele>146.26</ele>
        <time>2016-11-20T14:16:26Z</time>
      </trkpt>
      <trkpt lat="43.63559" lon="1.31046">
        <ele>146.26</ele>
        <time>2016-11-20T14:16:39Z</time>
      </trkpt>
      <trkpt lat="43.63574" lon="1.31075">
        <ele>145.78</ele>
        <time>2016-11-20T14:16:51Z</time>
      </trkpt>
      <trkpt lat="43.63596" lon="1.31107">
        <ele>146.26</ele>
        <time>2016-11-20T14:17:04Z</time>
      </trkpt>
      <trkpt lat="43.63616" lon="1.31145">
        <ele>146.26</ele>
        <time>2016-11-20T14:17:16Z</time>
      </trkpt>
      <trkpt lat="43.63639" lon="1.31184">
        <ele>145.78</ele>
        <time>2016-11-20T14:17:29Z</time>
      </trkpt>
      <trkpt lat="43.63663" lon="1.31223">
        <ele>145.3</ele>
        <time>2016-11-20T14:17:43Z</time>
      </trkpt>
      <trkpt lat="43.63682" lon="1.31268">
        <ele>145.3</ele>
        <time>2016-11-20T14:17:57Z</time>
      </trkpt>
      <trkpt lat="43.63694" lon="1.31313">
        <ele>144.34</ele>
        <time>2016-11-20T14:18:11Z</time>
      </trkpt>
      <trkpt lat="43.63704" lon="1.31349">
        <ele>145.78</ele>
        <time>2016-11-20T14:18:22Z</time>
      </trkpt>
      <trkpt lat="43.63718" lon="1.314">
        <ele>147.22</ele>
        <time>2016-11-20T14:18:35Z</time>
      </trkpt>
      <trkpt lat="43.63734" lon="1.31439">
        <ele>147.22</ele>
        <time>2016-11-20T14:18:47Z</time>
      </trkpt>
      <trkpt lat="43.63748" lon="1.31475">
        <ele>146.74</ele>
        <time>2016-11-20T14:18:58Z</time>
      </trkpt>
      <trkpt lat="43.63768" lon="1.3151">
        <ele>145.78</ele>
        <time>2016-11-20T14:19:09Z</time>
      </trkpt>
      <trkpt lat="43.63792" lon="1.31555">
        <ele>143.85</ele>
        <time>2016-11-20T14:19:25Z</time>
      </trkpt>
      <trkpt lat="43.63812" lon="1.31602">
        <ele>148.66</ele>
        <time>2016-11-20T14:19:38Z</time>
      </trkpt>
      <trkpt lat="43.63837" lon="1.31642">
        <ele>148.66</ele>
        <time>2016-11-20T14:19:54Z</time>
      </trkpt>
      <trkpt lat="43.63864" lon="1.31678">
        <ele>148.66</ele>
        <time>2016-11-20T14:20:12Z</time>
      </trkpt>
      <trkpt lat="43.63894" lon="1.31704">
        <ele>147.7</ele>
        <time>2016-11-20T14:20:25Z</time>
      </trkpt>
      <trkpt lat="43.63924" lon="1.31729">
        <ele>146.74</ele>
        <time>2016-11-20T14:20:39Z</time>
      </trkpt>
      <trkpt lat="43.63957" lon="1.3175">
        <ele>146.26</ele>
        <time>2016-11-20T14:20:54Z</time>
      </trkpt>
      <trkpt lat="43.63996" lon="1.31774">
        <ele>145.78</ele>
        <time>2016-11-20T14:21:10Z</time>
      </trkpt>
      <trkpt lat="43.64035" lon="1.31798">
        <ele>145.78</ele>
        <time>2016-11-20T14:21:25Z</time>
      </trkpt>
      <trkpt lat="43.64074" lon="1.31816">
        <ele>145.78</ele>
        <time>2016-11-20T14:21:39Z</time>
      </trkpt>
      <trkpt lat="43.64108" lon="1.31833">
        <ele>145.78</ele>
        <time>2016-11-20T14:21:53Z</time>
      </trkpt>
      <trkpt lat="43.64141" lon="1.31848">
        <ele>146.26</ele>
        <time>2016-11-20T14:22:08Z</time>
      </trkpt>
      <trkpt lat="43.64178" lon="1.31875">
        <ele>146.26</ele>
        <time>2016-11-20T14:22:24Z</time>
      </trkpt>
      <trkpt lat="43.64207" lon="1.31894">
        <ele>146.26</ele>
        <time>2016-11-20T14:22:35Z</time>
      </trkpt>
      <trkpt lat="43.6424" lon="1.31919">
        <ele>145.3</ele>
        <time>2016-11-20T14:22:48Z</time>
      </trkpt>
      <trkpt lat="43.64269" lon="1.31938">
        <ele>145.3</ele>
        <time>2016-11-20T14:23:02Z</time>
      </trkpt>
      <trkpt lat="43.64282" lon="1.31976">
        <ele>145.3</ele>
        <time>2016-11-20T14:23:16Z</time>
      </trkpt>
      <trkpt lat="43.643" lon="1.32026">
        <ele>145.78</ele>
        <time>2016-11-20T14:23:33Z</time>
      </trkpt>
      <trkpt lat="43.64318" lon="1.32076">
        <ele>145.78</ele>
        <time>2016-11-20T14:23:48Z</time>
      </trkpt>
      <trkpt lat="43.64342" lon="1.32125">
        <ele>146.74</ele>
        <time>2016-11-20T14:24:05Z</time>
      </trkpt>
      <trkpt lat="43.64364" lon="1.32164">
        <ele>146.74</ele>
        <time>2016-11-20T14:24:19Z</time>
      </trkpt>
      <trkpt lat="43.64386" lon="1.32207">
        <ele>146.74</ele>
        <time>2016-11-20T14:24:33Z</time>
      </trkpt>
      <trkpt lat="43.64409" lon="1.3225">
        <ele>146.74</ele>
        <time>2016-11-20T14:24:47Z</time>
      </trkpt>
      <trkpt lat="43.64441" lon="1.32293">
        <ele>146.26</ele>
        <time>2016-11-20T14:25:02Z</time>
      </trkpt>
      <trkpt lat="43.64467" lon="1.32313">
        <ele>147.22</ele>
        <time>2016-11-20T14:25:13Z</time>
      </trkpt>
      <trkpt lat="43.64493" lon="1.32335">
        <ele>148.18</ele>
        <time>2016-11-20T14:25:26Z</time>
      </trkpt>
      <trkpt lat="43.64522" lon="1.32354">
        <ele>149.62</ele>
        <time>2016-11-20T14:25:40Z</time>
      </trkpt>
      <trkpt lat="43.64561" lon="1.32373">
        <ele>150.58</ele>
        <time>2016-11-20T14:25:55Z</time>
      </trkpt>
      <trkpt lat="43.64594" lon="1.32405">
        <ele>151.06</ele>
        <time>2016-11-20T14:26:10Z</time>
      </trkpt>
      <trkpt lat="43.64627" lon="1.3243">
        <ele>152.03</ele>
        <time>2016-11-20T14:26:25Z</time>
      </trkpt>
      <trkpt lat="43.6466" lon="1.32453">
        <ele>152.99</ele>
        <time>2016-11-20T14:26:38Z</time>
      </trkpt>
      <trkpt lat="43.64697" lon="1.32479">
        <ele>151.54</ele>
        <time>2016-11-20T14:26:52Z</time>
      </trkpt>
      <trkpt lat="43.6472" lon="1.32494">
        <ele>147.7</ele>
        <time>2016-11-20T14:27:05Z</time>
      </trkpt>
      <trkpt lat="43.64727" lon="1.32506">
        <ele>145.3</ele>
        <time>2016-11-20T14:27:11Z</time>
      </trkpt>
      <trkpt lat="43.64729" lon="1.32507">
        <ele>145.3</ele>
        <time>2016-11-20T14:27:12Z</time>
      </trkpt>
      <trkpt lat="43.64731" lon="1.32508">
        <ele>145.3</ele>
        <time>2016-11-20T14:27:13Z</time>
      </trkpt>
      <trkpt lat="43.64759" lon="1.32513">
        <ele>144.82</ele>
        <time>2016-11-20T14:27:26Z</time>
      </trkpt>
      <trkpt lat="43.64777" lon="1.3251">
        <ele>144.82</ele>
        <time>2016-11-20T14:27:39Z</time>
      </trkpt>
      <trkpt lat="43.6478" lon="1.32506">
        <ele>144.82</ele>
        <time>2016-11-20T14:27:42Z</time>
      </trkpt>
      <trkpt lat="43.6478" lon="1.32508">
        <ele>144.82</ele>
        <time>2016-11-20T14:27:43Z</time>
      </trkpt>
      <trkpt lat="43.64781" lon="1.3251">
        <ele>144.82</ele>
        <time>2016-11-20T14:27:44Z</time>
      </trkpt>
      <trkpt lat="43.64782" lon="1.32513">
        <ele>144.82</ele>
        <time>2016-11-20T14:27:45Z</time>
      </trkpt>
      <trkpt lat="43.64783" lon="1.32515">
        <ele>144.82</ele>
        <time>2016-11-20T14:27:46Z</time>
      </trkpt>
      <trkpt lat="43.6479" lon="1.32539">
        <ele>144.82</ele>
        <time>2016-11-20T14:27:54Z</time>
      </trkpt>
      <trkpt lat="43.64795" lon="1.32569">
        <ele>144.82</ele>
        <time>2016-11-20T14:28:04Z</time>
      </trkpt>
      <trkpt lat="43.64807" lon="1.32601">
        <ele>144.82</ele>
        <time>2016-11-20T14:28:16Z</time>
      </trkpt>
      <trkpt lat="43.6482" lon="1.32627">
        <ele>144.34</ele>
        <time>2016-11-20T14:28:30Z</time>
      </trkpt>
      <trkpt lat="43.64833" lon="1.32653">
        <ele>144.82</ele>
        <time>2016-11-20T14:28:44Z</time>
      </trkpt>
      <trkpt lat="43.6484" lon="1.3267">
        <ele>145.3</ele>
        <time>2016-11-20T14:28:58Z</time>
      </trkpt>
      <trkpt lat="43.64849" lon="1.32691">
        <ele>145.3</ele>
        <time>2016-11-20T14:29:13Z</time>
      </trkpt>
      <trkpt lat="43.64856" lon="1.32713">
        <ele>145.3</ele>
        <time>2016-11-20T14:29:24Z</time>
      </trkpt>
      <trkpt lat="43.64856" lon="1.32716">
        <ele>145.3</ele>
        <time>2016-11-20T14:29:25Z</time>
      </trkpt>
      <trkpt lat="43.64852" lon="1.32746">
        <ele>145.78</ele>
        <time>2016-11-20T14:29:34Z</time>
      </trkpt>
      <trkpt lat="43.64847" lon="1.3278">
        <ele>145.78</ele>
        <time>2016-11-20T14:29:45Z</time>
      </trkpt>
      <trkpt lat="43.64844" lon="1.32812">
        <ele>145.78</ele>
        <time>2016-11-20T14:29:56Z</time>
      </trkpt>
      <trkpt lat="43.64838" lon="1.32848">
        <ele>146.26</ele>
        <time>2016-11-20T14:30:10Z</time>
      </trkpt>
      <trkpt lat="43.64835" lon="1.32877">
        <ele>146.26</ele>
        <time>2016-11-20T14:30:21Z</time>
      </trkpt>
      <trkpt lat="43.64823" lon="1.32912">
        <ele>146.74</ele>
        <time>2016-11-20T14:30:35Z</time>
      </trkpt>
      <trkpt lat="43.6481" lon="1.32939">
        <ele>147.7</ele>
        <time>2016-11-20T14:30:45Z</time>
      </trkpt>
      <trkpt lat="43.64797" lon="1.32962">
        <ele>148.18</ele>
        <time>2016-11-20T14:30:54Z</time>
      </trkpt>
      <trkpt lat="43.64795" lon="1.32964">
        <ele>148.66</ele>
        <time>2016-11-20T14:30:55Z</time>
      </trkpt>
      <trkpt lat="43.64793" lon="1.32966">
        <ele>148.18</ele>
        <time>2016-11-20T14:30:56Z</time>
      </trkpt>
      <trkpt lat="43.64772" lon="1.32987">
        <ele>149.14</ele>
        <time>2016-11-20T14:31:06Z</time>
      </trkpt>
      <trkpt lat="43.64747" lon="1.33006">
        <ele>150.1</ele>
        <time>2016-11-20T14:31:17Z</time>
      </trkpt>
      <trkpt lat="43.6472" lon="1.33028">
        <ele>150.58</ele>
        <time>2016-11-20T14:31:30Z</time>
      </trkpt>
      <trkpt lat="43.64698" lon="1.33047">
        <ele>150.58</ele>
        <time>2016-11-20T14:31:40Z</time>
      </trkpt>
      <trkpt lat="43.64673" lon="1.33068">
        <ele>151.06</ele>
        <time>2016-11-20T14:31:52Z</time>
      </trkpt>
      <trkpt lat="43.64649" lon="1.33087">
        <ele>151.06</ele>
        <time>2016-11-20T14:32:03Z</time>
      </trkpt>
      <trkpt lat="43.64622" lon="1.33103">
        <ele>151.54</ele>
        <time>2016-11-20T14:32:14Z</time>
      </trkpt>
      <trkpt lat="43.64598" lon="1.33114">
        <ele>152.03</ele>
        <time>2016-11-20T14:32:26Z</time>
      </trkpt>
      <trkpt lat="43.64579" lon="1.33124">
        <ele>152.99</ele>
        <time>2016-11-20T14:32:35Z</time>
      </trkpt>
      <trkpt lat="43.64547" lon="1.33135">
        <ele>153.95</ele>
        <time>2016-11-20T14:32:47Z</time>
      </trkpt>
      <trkpt lat="43.64507" lon="1.33147">
        <ele>155.39</ele>
        <time>2016-11-20T14:33:02Z</time>
      </trkpt>
      <trkpt lat="43.6447" lon="1.3316">
        <ele>156.35</ele>
        <time>2016-11-20T14:33:16Z</time>
      </trkpt>
      <trkpt lat="43.6444" lon="1.33166">
        <ele>157.31</ele>
        <time>2016-11-20T14:33:27Z</time>
      </trkpt>
      <trkpt lat="43.64429" lon="1.33165">
        <ele>157.31</ele>
        <time>2016-11-20T14:33:31Z</time>
      </trkpt>
      <trkpt lat="43.64404" lon="1.33168">
        <ele>157.79</ele>
        <time>2016-11-20T14:33:41Z</time>
      </trkpt>
      <trkpt lat="43.64377" lon="1.33168">
        <ele>159.24</ele>
        <time>2016-11-20T14:33:51Z</time>
      </trkpt>
      <trkpt lat="43.6435" lon="1.33159">
        <ele>161.16</ele>
        <time>2016-11-20T14:34:03Z</time>
      </trkpt>
      <trkpt lat="43.6432" lon="1.33142">
        <ele>162.12</ele>
        <time>2016-11-20T14:34:16Z</time>
      </trkpt>
      <trkpt lat="43.64293" lon="1.3313">
        <ele>163.08</ele>
        <time>2016-11-20T14:34:27Z</time>
      </trkpt>
      <trkpt lat="43.64268" lon="1.33119">
        <ele>163.08</ele>
        <time>2016-11-20T14:34:37Z</time>
      </trkpt>
      <trkpt lat="43.64242" lon="1.3311">
        <ele>163.08</ele>
        <time>2016-11-20T14:34:48Z</time>
      </trkpt>
      <trkpt lat="43.64215" lon="1.33098">
        <ele>163.08</ele>
        <time>2016-11-20T14:34:59Z</time>
      </trkpt>
      <trkpt lat="43.64194" lon="1.33091">
        <ele>163.56</ele>
        <time>2016-11-20T14:35:07Z</time>
      </trkpt>
      <trkpt lat="43.64192" lon="1.33089">
        <ele>163.56</ele>
        <time>2016-11-20T14:35:08Z</time>
      </trkpt>
      <trkpt lat="43.64189" lon="1.33088">
        <ele>163.56</ele>
        <time>2016-11-20T14:35:09Z</time>
      </trkpt>
      <trkpt lat="43.64157" lon="1.33079">
        <ele>163.08</ele>
        <time>2016-11-20T14:35:21Z</time>
      </trkpt>
      <trkpt lat="43.64133" lon="1.33074">
        <ele>162.6</ele>
        <time>2016-11-20T14:35:31Z</time>
      </trkpt>
      <trkpt lat="43.64103" lon="1.33076">
        <ele>162.12</ele>
        <time>2016-11-20T14:35:42Z</time>
      </trkpt>
      <trkpt lat="43.64078" lon="1.33057">
        <ele>162.12</ele>
        <time>2016-11-20T14:35:54Z</time>
      </trkpt>
      <trkpt lat="43.64049" lon="1.33026">
        <ele>162.12</ele>
        <time>2016-11-20T14:36:08Z</time>
      </trkpt>
      <trkpt lat="43.64049" lon="1.33023">
        <ele>162.12</ele>
        <time>2016-11-20T14:36:09Z</time>
      </trkpt>
      <trkpt lat="43.64047" lon="1.33021">
        <ele>162.12</ele>
        <time>2016-11-20T14:36:10Z</time>
      </trkpt>
      <trkpt lat="43.64046" lon="1.33019">
        <ele>162.12</ele>
        <time>2016-11-20T14:36:11Z</time>
      </trkpt>
      <trkpt lat="43.64044" lon="1.33016">
        <ele>162.12</ele>
        <time>2016-11-20T14:36:12Z</time>
      </trkpt>
      <trkpt lat="43.64042" lon="1.33014">
        <ele>162.12</ele>
        <time>2016-11-20T14:36:13Z</time>
      </trkpt>
      <trkpt lat="43.64041" lon="1.33011">
        <ele>162.12</ele>
        <time>2016-11-20T14:36:14Z</time>
      </trkpt>
      <trkpt lat="43.64039" lon="1.33008">
        <ele>162.12</ele>
        <time>2016-11-20T14:36:15Z</time>
      </trkpt>
      <trkpt lat="43.64029" lon="1.32971">
        <ele>162.12</ele>
        <time>2016-11-20T14:36:26Z</time>
      </trkpt>
      <trkpt lat="43.64034" lon="1.32922">
        <ele>162.12</ele>
        <time>2016-11-20T14:36:41Z</time>
      </trkpt>
      <trkpt lat="43.64048" lon="1.32874">
        <ele>162.12</ele>
        <time>2016-11-20T14:36:55Z</time>
      </trkpt>
      <trkpt lat="43.64044" lon="1.32818">
        <ele>161.64</ele>
        <time>2016-11-20T14:37:10Z</time>
      </trkpt>
      <trkpt lat="43.64039" lon="1.32809">
        <ele>161.64</ele>
        <time>2016-11-20T14:37:13Z</time>
      </trkpt>
      <trkpt lat="43.64038" lon="1.32805">
        <ele>161.64</ele>
        <time>2016-11-20T14:37:14Z</time>
      </trkpt>
      <trkpt lat="43.64019" lon="1.32778">
        <ele>161.64</ele>
        <time>2016-11-20T14:37:26Z</time>
      </trkpt>
      <trkpt lat="43.64017" lon="1.32774">
        <ele>161.64</ele>
        <time>2016-11-20T14:37:27Z</time>
      </trkpt>
      <trkpt lat="43.63994" lon="1.3273">
        <ele>162.12</ele>
        <time>2016-11-20T14:37:40Z</time>
      </trkpt>
      <trkpt lat="43.63966" lon="1.32715">
        <ele>162.12</ele>
        <time>2016-11-20T14:37:52Z</time>
      </trkpt>
      <trkpt lat="43.63936" lon="1.32722">
        <ele>162.6</ele>
        <time>2016-11-20T14:38:03Z</time>
      </trkpt>
      <trkpt lat="43.63914" lon="1.32733">
        <ele>162.12</ele>
        <time>2016-11-20T14:38:13Z</time>
      </trkpt>
      <trkpt lat="43.63882" lon="1.32751">
        <ele>162.6</ele>
        <time>2016-11-20T14:38:26Z</time>
      </trkpt>
      <trkpt lat="43.63856" lon="1.32765">
        <ele>163.56</ele>
        <time>2016-11-20T14:38:37Z</time>
      </trkpt>
      <trkpt lat="43.6383" lon="1.32771">
        <ele>164.04</ele>
        <time>2016-11-20T14:38:47Z</time>
      </trkpt>
      <trkpt lat="43.63804" lon="1.32752">
        <ele>165</ele>
        <time>2016-11-20T14:38:58Z</time>
      </trkpt>
      <trkpt lat="43.63779" lon="1.32721">
        <ele>165.48</ele>
        <time>2016-11-20T14:39:11Z</time>
      </trkpt>
      <trkpt lat="43.63748" lon="1.32686">
        <ele>165.96</ele>
        <time>2016-11-20T14:39:27Z</time>
      </trkpt>
      <trkpt lat="43.63732" lon="1.32659">
        <ele>165.48</ele>
        <time>2016-11-20T14:39:39Z</time>
      </trkpt>
      <trkpt lat="43.63712" lon="1.32625">
        <ele>165.48</ele>
        <time>2016-11-20T14:39:51Z</time>
      </trkpt>
      <trkpt lat="43.63695" lon="1.32592">
        <ele>166.45</ele>
        <time>2016-11-20T14:40:02Z</time>
      </trkpt>
      <trkpt lat="43.63676" lon="1.32555">
        <ele>174.14</ele>
        <time>2016-11-20T14:40:15Z</time>
      </trkpt>
      <trkpt lat="43.63667" lon="1.32534">
        <ele>177.5</ele>
        <time>2016-11-20T14:40:22Z</time>
      </trkpt>
      <trkpt lat="43.63666" lon="1.32531">
        <ele>177.98</ele>
        <time>2016-11-20T14:40:23Z</time>
      </trkpt>
      <trkpt lat="43.63665" lon="1.32528">
        <ele>178.46</ele>
        <time>2016-11-20T14:40:24Z</time>
      </trkpt>
      <trkpt lat="43.63664" lon="1.32525">
        <ele>178.94</ele>
        <time>2016-11-20T14:40:25Z</time>
      </trkpt>
      <trkpt lat="43.63663" lon="1.32522">
        <ele>178.94</ele>
        <time>2016-11-20T14:40:26Z</time>
      </trkpt>
      <trkpt lat="43.63662" lon="1.32519">
        <ele>179.42</ele>
        <time>2016-11-20T14:40:27Z</time>
      </trkpt>
      <trkpt lat="43.63661" lon="1.32516">
        <ele>179.9</ele>
        <time>2016-11-20T14:40:28Z</time>
      </trkpt>
      <trkpt lat="43.6366" lon="1.32513">
        <ele>179.9</ele>
        <time>2016-11-20T14:40:29Z</time>
      </trkpt>
      <trkpt lat="43.6366" lon="1.3251">
        <ele>180.38</ele>
        <time>2016-11-20T14:40:30Z</time>
      </trkpt>
      <trkpt lat="43.63659" lon="1.32507">
        <ele>180.38</ele>
        <time>2016-11-20T14:40:31Z</time>
      </trkpt>
      <trkpt lat="43.63658" lon="1.32503">
        <ele>180.38</ele>
        <time>2016-11-20T14:40:32Z</time>
      </trkpt>
      <trkpt lat="43.63657" lon="1.325">
        <ele>180.87</ele>
        <time>2016-11-20T14:40:33Z</time>
      </trkpt>
      <trkpt lat="43.63656" lon="1.32496">
        <ele>180.87</ele>
        <time>2016-11-20T14:40:34Z</time>
      </trkpt>
      <trkpt lat="43.63655" lon="1.32493">
        <ele>180.87</ele>
        <time>2016-11-20T14:40:35Z</time>
      </trkpt>
      <trkpt lat="43.63654" lon="1.32489">
        <ele>180.87</ele>
        <time>2016-11-20T14:40:36Z</time>
      </trkpt>
      <trkpt lat="43.63653" lon="1.32485">
        <ele>180.87</ele>
        <time>2016-11-20T14:40:37Z</time>
      </trkpt>
      <trkpt lat="43.63651" lon="1.32481">
        <ele>180.87</ele>
        <time>2016-11-20T14:40:38Z</time>
      </trkpt>
      <trkpt lat="43.63638" lon="1.32432">
        <ele>179.9</ele>
        <time>2016-11-20T14:40:51Z</time>
      </trkpt>
      <trkpt lat="43.6363" lon="1.32391">
        <ele>177.98</ele>
        <time>2016-11-20T14:41:03Z</time>
      </trkpt>
      <trkpt lat="43.6363" lon="1.32372">
        <ele>177.02</ele>
        <time>2016-11-20T14:41:08Z</time>
      </trkpt>
      <trkpt lat="43.63629" lon="1.32324">
        <ele>176.06</ele>
        <time>2016-11-20T14:41:21Z</time>
      </trkpt>
      <trkpt lat="43.63612" lon="1.32283">
        <ele>176.54</ele>
        <time>2016-11-20T14:41:33Z</time>
      </trkpt>
      <trkpt lat="43.63604" lon="1.32244">
        <ele>175.58</ele>
        <time>2016-11-20T14:41:44Z</time>
      </trkpt>
      <trkpt lat="43.63601" lon="1.3221">
        <ele>175.1</ele>
        <time>2016-11-20T14:41:54Z</time>
      </trkpt>
      <trkpt lat="43.63599" lon="1.32169">
        <ele>174.62</ele>
        <time>2016-11-20T14:42:05Z</time>
      </trkpt>
      <trkpt lat="43.63585" lon="1.32125">
        <ele>173.66</ele>
        <time>2016-11-20T14:42:17Z</time>
      </trkpt>
      <trkpt lat="43.63557" lon="1.32081">
        <ele>173.66</ele>
        <time>2016-11-20T14:42:32Z</time>
      </trkpt>
      <trkpt lat="43.63527" lon="1.32045">
        <ele>170.77</ele>
        <time>2016-11-20T14:42:48Z</time>
      </trkpt>
      <trkpt lat="43.63499" lon="1.3201">
        <ele>167.89</ele>
        <time>2016-11-20T14:43:03Z</time>
      </trkpt>
      <trkpt lat="43.63474" lon="1.3198">
        <ele>165</ele>
        <time>2016-11-20T14:43:17Z</time>
      </trkpt>
      <trkpt lat="43.6344" lon="1.31961">
        <ele>164.04</ele>
        <time>2016-11-20T14:43:30Z</time>
      </trkpt>
      <trkpt lat="43.63428" lon="1.31955">
        <ele>163.56</ele>
        <time>2016-11-20T14:43:35Z</time>
      </trkpt>
      <trkpt lat="43.63426" lon="1.31954">
        <ele>163.08</ele>
        <time>2016-11-20T14:43:36Z</time>
      </trkpt>
      <trkpt lat="43.63423" lon="1.31953">
        <ele>163.08</ele>
        <time>2016-11-20T14:43:37Z</time>
      </trkpt>
      <trkpt lat="43.63421" lon="1.31952">
        <ele>163.08</ele>
        <time>2016-11-20T14:43:38Z</time>
      </trkpt>
      <trkpt lat="43.63418" lon="1.31952">
        <ele>162.6</ele>
        <time>2016-11-20T14:43:39Z</time>
      </trkpt>
      <trkpt lat="43.63411" lon="1.31951">
        <ele>162.12</ele>
        <time>2016-11-20T14:43:42Z</time>
      </trkpt>
      <trkpt lat="43.63408" lon="1.31951">
        <ele>162.12</ele>
        <time>2016-11-20T14:43:43Z</time>
      </trkpt>
      <trkpt lat="43.63393" lon="1.31956">
        <ele>161.64</ele>
        <time>2016-11-20T14:43:49Z</time>
      </trkpt>
      <trkpt lat="43.63391" lon="1.31958">
        <ele>161.64</ele>
        <time>2016-11-20T14:43:50Z</time>
      </trkpt>
      <trkpt lat="43.63374" lon="1.31972">
        <ele>161.16</ele>
        <time>2016-11-20T14:43:59Z</time>
      </trkpt>
      <trkpt lat="43.63371" lon="1.31973">
        <ele>161.16</ele>
        <time>2016-11-20T14:44:00Z</time>
      </trkpt>
      <trkpt lat="43.63369" lon="1.31973">
        <ele>161.16</ele>
        <time>2016-11-20T14:44:01Z</time>
      </trkpt>
      <trkpt lat="43.63367" lon="1.31973">
        <ele>161.16</ele>
        <time>2016-11-20T14:44:02Z</time>
      </trkpt>
      <trkpt lat="43.63365" lon="1.31972">
        <ele>161.16</ele>
        <time>2016-11-20T14:44:03Z</time>
      </trkpt>
      <trkpt lat="43.63363" lon="1.31972">
        <ele>161.16</ele>
        <time>2016-11-20T14:44:04Z</time>
      </trkpt>
      <trkpt lat="43.63362" lon="1.3197">
        <ele>161.16</ele>
        <time>2016-11-20T14:44:05Z</time>
      </trkpt>
      <trkpt lat="43.6336" lon="1.31968">
        <ele>161.16</ele>
        <time>2016-11-20T14:44:06Z</time>
      </trkpt>
      <trkpt lat="43.63358" lon="1.31966">
        <ele>161.16</ele>
        <time>2016-11-20T14:44:07Z</time>
      </trkpt>
      <trkpt lat="43.63357" lon="1.31963">
        <ele>161.16</ele>
        <time>2016-11-20T14:44:08Z</time>
      </trkpt>
      <trkpt lat="43.63339" lon="1.31927">
        <ele>161.16</ele>
        <time>2016-11-20T14:44:21Z</time>
      </trkpt>
      <trkpt lat="43.63323" lon="1.31894">
        <ele>161.16</ele>
        <time>2016-11-20T14:44:34Z</time>
      </trkpt>
      <trkpt lat="43.63322" lon="1.31891">
        <ele>161.16</ele>
        <time>2016-11-20T14:44:35Z</time>
      </trkpt>
      <trkpt lat="43.6332" lon="1.31888">
        <ele>161.16</ele>
        <time>2016-11-20T14:44:36Z</time>
      </trkpt>
      <trkpt lat="43.63319" lon="1.31885">
        <ele>161.16</ele>
        <time>2016-11-20T14:44:37Z</time>
      </trkpt>
      <trkpt lat="43.63317" lon="1.31882">
        <ele>161.16</ele>
        <time>2016-11-20T14:44:38Z</time>
      </trkpt>
      <trkpt lat="43.63315" lon="1.31879">
        <ele>161.16</ele>
        <time>2016-11-20T14:44:39Z</time>
      </trkpt>
      <trkpt lat="43.63289" lon="1.31847">
        <ele>162.6</ele>
        <time>2016-11-20T14:44:52Z</time>
      </trkpt>
      <trkpt lat="43.63271" lon="1.31812">
        <ele>163.08</ele>
        <time>2016-11-20T14:45:07Z</time>
      </trkpt>
      <trkpt lat="43.63243" lon="1.31776">
        <ele>163.08</ele>
        <time>2016-11-20T14:45:20Z</time>
      </trkpt>
      <trkpt lat="43.63209" lon="1.31746">
        <ele>165.48</ele>
        <time>2016-11-20T14:45:36Z</time>
      </trkpt>
      <trkpt lat="43.63204" lon="1.3175">
        <ele>165.48</ele>
        <time>2016-11-20T14:45:38Z</time>
      </trkpt>
      <trkpt lat="43.63203" lon="1.31752">
        <ele>165.48</ele>
        <time>2016-11-20T14:45:39Z</time>
      </trkpt>
      <trkpt lat="43.63201" lon="1.31756">
        <ele>165</ele>
        <time>2016-11-20T14:45:40Z</time>
      </trkpt>
      <trkpt lat="43.632" lon="1.31759">
        <ele>165</ele>
        <time>2016-11-20T14:45:41Z</time>
      </trkpt>
      <trkpt lat="43.63197" lon="1.31762">
        <ele>165</ele>
        <time>2016-11-20T14:45:42Z</time>
      </trkpt>
      <trkpt lat="43.63195" lon="1.31765">
        <ele>165</ele>
        <time>2016-11-20T14:45:43Z</time>
      </trkpt>
      <trkpt lat="43.63194" lon="1.31769">
        <ele>165</ele>
        <time>2016-11-20T14:45:44Z</time>
      </trkpt>
      <trkpt lat="43.63192" lon="1.31772">
        <ele>165</ele>
        <time>2016-11-20T14:45:45Z</time>
      </trkpt>
      <trkpt lat="43.6319" lon="1.31775">
        <ele>165</ele>
        <time>2016-11-20T14:45:46Z</time>
      </trkpt>
      <trkpt lat="43.63189" lon="1.31778">
        <ele>165</ele>
        <time>2016-11-20T14:45:47Z</time>
      </trkpt>
      <trkpt lat="43.63187" lon="1.3178">
        <ele>165</ele>
        <time>2016-11-20T14:45:48Z</time>
      </trkpt>
      <trkpt lat="43.63185" lon="1.31782">
        <ele>165</ele>
        <time>2016-11-20T14:45:49Z</time>
      </trkpt>
      <trkpt lat="43.63183" lon="1.31784">
        <ele>165</ele>
        <time>2016-11-20T14:45:50Z</time>
      </trkpt>
      <trkpt lat="43.63181" lon="1.31787">
        <ele>165</ele>
        <time>2016-11-20T14:45:51Z</time>
      </trkpt>
      <trkpt lat="43.63179" lon="1.31789">
        <ele>165</ele>
        <time>2016-11-20T14:45:52Z</time>
      </trkpt>
      <trkpt lat="43.63156" lon="1.31811">
        <ele>165</ele>
        <time>2016-11-20T14:46:03Z</time>
      </trkpt>
      <trkpt lat="43.63154" lon="1.31812">
        <ele>165</ele>
        <time>2016-11-20T14:46:04Z</time>
      </trkpt>
      <trkpt lat="43.63153" lon="1.31814">
        <ele>165.48</ele>
        <time>2016-11-20T14:46:05Z</time>
      </trkpt>
      <trkpt lat="43.63151" lon="1.31817">
        <ele>165.96</ele>
        <time>2016-11-20T14:46:06Z</time>
      </trkpt>
      <trkpt lat="43.63149" lon="1.3182">
        <ele>166.45</ele>
        <time>2016-11-20T14:46:07Z</time>
      </trkpt>
      <trkpt lat="43.63123" lon="1.31845">
        <ele>167.41</ele>
        <time>2016-11-20T14:46:19Z</time>
      </trkpt>
      <trkpt lat="43.63096" lon="1.31869">
        <ele>171.25</ele>
        <time>2016-11-20T14:46:31Z</time>
      </trkpt>
      <trkpt lat="43.63073" lon="1.3189">
        <ele>172.21</ele>
        <time>2016-11-20T14:46:42Z</time>
      </trkpt>
      <trkpt lat="43.6305" lon="1.31904">
        <ele>172.21</ele>
        <time>2016-11-20T14:46:52Z</time>
      </trkpt>
      <trkpt lat="43.63025" lon="1.31919">
        <ele>171.73</ele>
        <time>2016-11-20T14:47:02Z</time>
      </trkpt>
      <trkpt lat="43.63" lon="1.31932">
        <ele>172.69</ele>
        <time>2016-11-20T14:47:13Z</time>
      </trkpt>
      <trkpt lat="43.62972" lon="1.31945">
        <ele>172.69</ele>
        <time>2016-11-20T14:47:24Z</time>
      </trkpt>
      <trkpt lat="43.62946" lon="1.31951">
        <ele>171.25</ele>
        <time>2016-11-20T14:47:35Z</time>
      </trkpt>
      <trkpt lat="43.62914" lon="1.31959">
        <ele>170.29</ele>
        <time>2016-11-20T14:47:48Z</time>
      </trkpt>
      <trkpt lat="43.62885" lon="1.31969">
        <ele>171.25</ele>
        <time>2016-11-20T14:47:59Z</time>
      </trkpt>
      <trkpt lat="43.62851" lon="1.31972">
        <ele>171.25</ele>
        <time>2016-11-20T14:48:12Z</time>
      </trkpt>
      <trkpt lat="43.6283" lon="1.31972">
        <ele>171.25</ele>
        <time>2016-11-20T14:48:19Z</time>
      </trkpt>
      <trkpt lat="43.62818" lon="1.31969">
        <ele>170.29</ele>
        <time>2016-11-20T14:48:24Z</time>
      </trkpt>
      <trkpt lat="43.62815" lon="1.31968">
        <ele>169.81</ele>
        <time>2016-11-20T14:48:25Z</time>
      </trkpt>
      <trkpt lat="43.62782" lon="1.31968">
        <ele>168.37</ele>
        <time>2016-11-20T14:48:40Z</time>
      </trkpt>
      <trkpt lat="43.62735" lon="1.31956">
        <ele>167.89</ele>
        <time>2016-11-20T14:48:59Z</time>
      </trkpt>
      <trkpt lat="43.62733" lon="1.31956">
        <ele>167.89</ele>
        <time>2016-11-20T14:49:00Z</time>
      </trkpt>
      <trkpt lat="43.6273" lon="1.31955">
        <ele>167.89</ele>
        <time>2016-11-20T14:49:01Z</time>
      </trkpt>
      <trkpt lat="43.62727" lon="1.31955">
        <ele>167.89</ele>
        <time>2016-11-20T14:49:02Z</time>
      </trkpt>
      <trkpt lat="43.62724" lon="1.31955">
        <ele>168.37</ele>
        <time>2016-11-20T14:49:03Z</time>
      </trkpt>
      <trkpt lat="43.62699" lon="1.31962">
        <ele>170.29</ele>
        <time>2016-11-20T14:49:11Z</time>
      </trkpt>
      <trkpt lat="43.62679" lon="1.3199">
        <ele>170.29</ele>
        <time>2016-11-20T14:49:21Z</time>
      </trkpt>
      <trkpt lat="43.62659" lon="1.3203">
        <ele>171.25</ele>
        <time>2016-11-20T14:49:34Z</time>
      </trkpt>
      <trkpt lat="43.62643" lon="1.32068">
        <ele>170.77</ele>
        <time>2016-11-20T14:49:46Z</time>
      </trkpt>
      <trkpt lat="43.62632" lon="1.32091">
        <ele>171.25</ele>
        <time>2016-11-20T14:49:54Z</time>
      </trkpt>
      <trkpt lat="43.62631" lon="1.32095">
        <ele>171.25</ele>
        <time>2016-11-20T14:49:55Z</time>
      </trkpt>
      <trkpt lat="43.62619" lon="1.32131">
        <ele>171.73</ele>
        <time>2016-11-20T14:50:06Z</time>
      </trkpt>
      <trkpt lat="43.62615" lon="1.32143">
        <ele>171.73</ele>
        <time>2016-11-20T14:50:10Z</time>
      </trkpt>
      <trkpt lat="43.62614" lon="1.32147">
        <ele>171.73</ele>
        <time>2016-11-20T14:50:11Z</time>
      </trkpt>
      <trkpt lat="43.62613" lon="1.3215">
        <ele>171.73</ele>
        <time>2016-11-20T14:50:12Z</time>
      </trkpt>
      <trkpt lat="43.62612" lon="1.32153">
        <ele>171.73</ele>
        <time>2016-11-20T14:50:13Z</time>
      </trkpt>
      <trkpt lat="43.62611" lon="1.32157">
        <ele>171.73</ele>
        <time>2016-11-20T14:50:14Z</time>
      </trkpt>
      <trkpt lat="43.6261" lon="1.3216">
        <ele>172.21</ele>
        <time>2016-11-20T14:50:15Z</time>
      </trkpt>
      <trkpt lat="43.62604" lon="1.32184">
        <ele>172.21</ele>
        <time>2016-11-20T14:50:22Z</time>
      </trkpt>
      <trkpt lat="43.62604" lon="1.32187">
        <ele>172.21</ele>
        <time>2016-11-20T14:50:23Z</time>
      </trkpt>
      <trkpt lat="43.62604" lon="1.3219">
        <ele>172.21</ele>
        <time>2016-11-20T14:50:24Z</time>
      </trkpt>
      <trkpt lat="43.62603" lon="1.32192">
        <ele>172.21</ele>
        <time>2016-11-20T14:50:25Z</time>
      </trkpt>
      <trkpt lat="43.62603" lon="1.32195">
        <ele>172.21</ele>
        <time>2016-11-20T14:50:26Z</time>
      </trkpt>
      <trkpt lat="43.62603" lon="1.32197">
        <ele>171.73</ele>
        <time>2016-11-20T14:50:27Z</time>
      </trkpt>
      <trkpt lat="43.62602" lon="1.322">
        <ele>171.73</ele>
        <time>2016-11-20T14:50:28Z</time>
      </trkpt>
      <trkpt lat="43.62601" lon="1.32204">
        <ele>171.73</ele>
        <time>2016-11-20T14:50:29Z</time>
      </trkpt>
      <trkpt lat="43.626" lon="1.32207">
        <ele>171.73</ele>
        <time>2016-11-20T14:50:30Z</time>
      </trkpt>
      <trkpt lat="43.62599" lon="1.32211">
        <ele>171.73</ele>
        <time>2016-11-20T14:50:31Z</time>
      </trkpt>
      <trkpt lat="43.62599" lon="1.32214">
        <ele>171.73</ele>
        <time>2016-11-20T14:50:32Z</time>
      </trkpt>
      <trkpt lat="43.62592" lon="1.32249">
        <ele>171.25</ele>
        <time>2016-11-20T14:50:42Z</time>
      </trkpt>
      <trkpt lat="43.62585" lon="1.32277">
        <ele>171.25</ele>
        <time>2016-11-20T14:50:51Z</time>
      </trkpt>
      <trkpt lat="43.62584" lon="1.3228">
        <ele>171.25</ele>
        <time>2016-11-20T14:50:52Z</time>
      </trkpt>
      <trkpt lat="43.62583" lon="1.32283">
        <ele>171.25</ele>
        <time>2016-11-20T14:50:53Z</time>
      </trkpt>
      <trkpt lat="43.62582" lon="1.32286">
        <ele>171.25</ele>
        <time>2016-11-20T14:50:54Z</time>
      </trkpt>
      <trkpt lat="43.62581" lon="1.3229">
        <ele>171.25</ele>
        <time>2016-11-20T14:50:55Z</time>
      </trkpt>
      <trkpt lat="43.6258" lon="1.32293">
        <ele>171.25</ele>
        <time>2016-11-20T14:50:56Z</time>
      </trkpt>
      <trkpt lat="43.62579" lon="1.32296">
        <ele>171.25</ele>
        <time>2016-11-20T14:50:57Z</time>
      </trkpt>
      <trkpt lat="43.62565" lon="1.32332">
        <ele>171.73</ele>
        <time>2016-11-20T14:51:09Z</time>
      </trkpt>
      <trkpt lat="43.62556" lon="1.32352">
        <ele>172.69</ele>
        <time>2016-11-20T14:51:15Z</time>
      </trkpt>
      <trkpt lat="43.62554" lon="1.32353">
        <ele>172.69</ele>
        <time>2016-11-20T14:51:16Z</time>
      </trkpt>
      <trkpt lat="43.62551" lon="1.32353">
        <ele>172.69</ele>
        <time>2016-11-20T14:51:17Z</time>
      </trkpt>
      <trkpt lat="43.62549" lon="1.32353">
        <ele>172.69</ele>
        <time>2016-11-20T14:51:18Z</time>
      </trkpt>
      <trkpt lat="43.62547" lon="1.32354">
        <ele>172.69</ele>
        <time>2016-11-20T14:51:19Z</time>
      </trkpt>
      <trkpt lat="43.62545" lon="1.32355">
        <ele>172.69</ele>
        <time>2016-11-20T14:51:20Z</time>
      </trkpt>
      <trkpt lat="43.62543" lon="1.32354">
        <ele>172.69</ele>
        <time>2016-11-20T14:51:21Z</time>
      </trkpt>
      <trkpt lat="43.62541" lon="1.32353">
        <ele>172.69</ele>
        <time>2016-11-20T14:51:22Z</time>
      </trkpt>
      <trkpt lat="43.62538" lon="1.32352">
        <ele>172.69</ele>
        <time>2016-11-20T14:51:23Z</time>
      </trkpt>
      <trkpt lat="43.62536" lon="1.32351">
        <ele>172.69</ele>
        <time>2016-11-20T14:51:24Z</time>
      </trkpt>
      <trkpt lat="43.62534" lon="1.3235">
        <ele>172.69</ele>
        <time>2016-11-20T14:51:25Z</time>
      </trkpt>
      <trkpt lat="43.62531" lon="1.32349">
        <ele>172.69</ele>
        <time>2016-11-20T14:51:26Z</time>
      </trkpt>
      <trkpt lat="43.62528" lon="1.32349">
        <ele>172.69</ele>
        <time>2016-11-20T14:51:27Z</time>
      </trkpt>
      <trkpt lat="43.62496" lon="1.32338">
        <ele>173.17</ele>
        <time>2016-11-20T14:51:39Z</time>
      </trkpt>
      <trkpt lat="43.62467" lon="1.32329">
        <ele>172.69</ele>
        <time>2016-11-20T14:51:50Z</time>
      </trkpt>
      <trkpt lat="43.62425" lon="1.32313">
        <ele>173.17</ele>
        <time>2016-11-20T14:52:06Z</time>
      </trkpt>
      <trkpt lat="43.62392" lon="1.32306">
        <ele>174.62</ele>
        <time>2016-11-20T14:52:19Z</time>
      </trkpt>
      <trkpt lat="43.62356" lon="1.32299">
        <ele>175.58</ele>
        <time>2016-11-20T14:52:33Z</time>
      </trkpt>
      <trkpt lat="43.62329" lon="1.32284">
        <ele>176.54</ele>
        <time>2016-11-20T14:52:45Z</time>
      </trkpt>
      <trkpt lat="43.62319" lon="1.32233">
        <ele>176.06</ele>
        <time>2016-11-20T14:53:00Z</time>
      </trkpt>
      <trkpt lat="43.62309" lon="1.32191">
        <ele>175.58</ele>
        <time>2016-11-20T14:53:12Z</time>
      </trkpt>
      <trkpt lat="43.62293" lon="1.32155">
        <ele>176.54</ele>
        <time>2016-11-20T14:53:24Z</time>
      </trkpt>
      <trkpt lat="43.62272" lon="1.32127">
        <ele>176.06</ele>
        <time>2016-11-20T14:53:37Z</time>
      </trkpt>
      <trkpt lat="43.62246" lon="1.32099">
        <ele>176.06</ele>
        <time>2016-11-20T14:53:50Z</time>
      </trkpt>
      <trkpt lat="43.62214" lon="1.32077">
        <ele>176.06</ele>
        <time>2016-11-20T14:54:03Z</time>
      </trkpt>
      <trkpt lat="43.62194" lon="1.32066">
        <ele>175.1</ele>
        <time>2016-11-20T14:54:11Z</time>
      </trkpt>
      <trkpt lat="43.62191" lon="1.32067">
        <ele>175.1</ele>
        <time>2016-11-20T14:54:12Z</time>
      </trkpt>
      <trkpt lat="43.62189" lon="1.32069">
        <ele>175.1</ele>
        <time>2016-11-20T14:54:13Z</time>
      </trkpt>
      <trkpt lat="43.62179" lon="1.32077">
        <ele>175.58</ele>
        <time>2016-11-20T14:54:18Z</time>
      </trkpt>
      <trkpt lat="43.62176" lon="1.32076">
        <ele>176.06</ele>
        <time>2016-11-20T14:54:19Z</time>
      </trkpt>
      <trkpt lat="43.62174" lon="1.32076">
        <ele>176.06</ele>
        <time>2016-11-20T14:54:20Z</time>
      </trkpt>
      <trkpt lat="43.62141" lon="1.32066">
        <ele>178.94</ele>
        <time>2016-11-20T14:54:34Z</time>
      </trkpt>
      <trkpt lat="43.62113" lon="1.32055">
        <ele>179.42</ele>
        <time>2016-11-20T14:54:46Z</time>
      </trkpt>
      <trkpt lat="43.62077" lon="1.32042">
        <ele>178.94</ele>
        <time>2016-11-20T14:55:00Z</time>
      </trkpt>
      <trkpt lat="43.6204" lon="1.3203">
        <ele>177.5</ele>
        <time>2016-11-20T14:55:15Z</time>
      </trkpt>
      <trkpt lat="43.62013" lon="1.32019">
        <ele>178.46</ele>
        <time>2016-11-20T14:55:26Z</time>
      </trkpt>
      <trkpt lat="43.61978" lon="1.32018">
        <ele>178.46</ele>
        <time>2016-11-20T14:55:38Z</time>
      </trkpt>
      <trkpt lat="43.61942" lon="1.32024">
        <ele>175.58</ele>
        <time>2016-11-20T14:55:52Z</time>
      </trkpt>
      <trkpt lat="43.61918" lon="1.32027">
        <ele>175.58</ele>
        <time>2016-11-20T14:56:02Z</time>
      </trkpt>
      <trkpt lat="43.61915" lon="1.32022">
        <ele>175.58</ele>
        <time>2016-11-20T14:56:04Z</time>
      </trkpt>
      <trkpt lat="43.61922" lon="1.31978">
        <ele>174.62</ele>
        <time>2016-11-20T14:56:17Z</time>
      </trkpt>
      <trkpt lat="43.61927" lon="1.31966">
        <ele>174.14</ele>
        <time>2016-11-20T14:56:21Z</time>
      </trkpt>
      <trkpt lat="43.61927" lon="1.31964">
        <ele>174.14</ele>
        <time>2016-11-20T14:56:22Z</time>
      </trkpt>
      <trkpt lat="43.61928" lon="1.31951">
        <ele>173.66</ele>
        <time>2016-11-20T14:56:26Z</time>
      </trkpt>
      <trkpt lat="43.61943" lon="1.31912">
        <ele>174.14</ele>
        <time>2016-11-20T14:56:38Z</time>
      </trkpt>
      <trkpt lat="43.61965" lon="1.31868">
        <ele>174.14</ele>
        <time>2016-11-20T14:56:53Z</time>
      </trkpt>
      <trkpt lat="43.6198" lon="1.31822">
        <ele>173.17</ele>
        <time>2016-11-20T14:57:07Z</time>
      </trkpt>
      <trkpt lat="43.61987" lon="1.31778">
        <ele>171.73</ele>
        <time>2016-11-20T14:57:20Z</time>
      </trkpt>
      <trkpt lat="43.6199" lon="1.31732">
        <ele>170.77</ele>
        <time>2016-11-20T14:57:33Z</time>
      </trkpt>
      <trkpt lat="43.61994" lon="1.31675">
        <ele>170.29</ele>
        <time>2016-11-20T14:57:50Z</time>
      </trkpt>
      <trkpt lat="43.61997" lon="1.31619">
        <ele>168.37</ele>
        <time>2016-11-20T14:58:07Z</time>
      </trkpt>
      <trkpt lat="43.62004" lon="1.31565">
        <ele>166.93</ele>
        <time>2016-11-20T14:58:21Z</time>
      </trkpt>
      <trkpt lat="43.62013" lon="1.31524">
        <ele>165.96</ele>
        <time>2016-11-20T14:58:32Z</time>
      </trkpt>
      <trkpt lat="43.62025" lon="1.31488">
        <ele>165</ele>
        <time>2016-11-20T14:58:43Z</time>
      </trkpt>
      <trkpt lat="43.62039" lon="1.31439">
        <ele>164.04</ele>
        <time>2016-11-20T14:58:57Z</time>
      </trkpt>
      <trkpt lat="43.6205" lon="1.31401">
        <ele>162.6</ele>
        <time>2016-11-20T14:59:09Z</time>
      </trkpt>
      <trkpt lat="43.62057" lon="1.3136">
        <ele>161.64</ele>
        <time>2016-11-20T14:59:21Z</time>
      </trkpt>
      <trkpt lat="43.6207" lon="1.31312">
        <ele>163.08</ele>
        <time>2016-11-20T14:59:36Z</time>
      </trkpt>
      <trkpt lat="43.62078" lon="1.31263">
        <ele>163.56</ele>
        <time>2016-11-20T14:59:51Z</time>
      </trkpt>
      <trkpt lat="43.6209" lon="1.31224">
        <ele>163.56</ele>
        <time>2016-11-20T15:00:04Z</time>
      </trkpt>
      <trkpt lat="43.62092" lon="1.31217">
        <ele>163.56</ele>
        <time>2016-11-20T15:00:06Z</time>
      </trkpt>
      <trkpt lat="43.62092" lon="1.31213">
        <ele>163.56</ele>
        <time>2016-11-20T15:00:07Z</time>
      </trkpt>
      <trkpt lat="43.62092" lon="1.3121">
        <ele>164.04</ele>
        <time>2016-11-20T15:00:08Z</time>
      </trkpt>
      <trkpt lat="43.62093" lon="1.31206">
        <ele>164.04</ele>
        <time>2016-11-20T15:00:09Z</time>
      </trkpt>
      <trkpt lat="43.62093" lon="1.31203">
        <ele>164.04</ele>
        <time>2016-11-20T15:00:10Z</time>
      </trkpt>
      <trkpt lat="43.62087" lon="1.31172">
        <ele>164.04</ele>
        <time>2016-11-20T15:00:22Z</time>
      </trkpt>
      <trkpt lat="43.62071" lon="1.31149">
        <ele>164.04</ele>
        <time>2016-11-20T15:00:32Z</time>
      </trkpt>
      <trkpt lat="43.62069" lon="1.31147">
        <ele>164.04</ele>
        <time>2016-11-20T15:00:33Z</time>
      </trkpt>
      <trkpt lat="43.62067" lon="1.31145">
        <ele>164.04</ele>
        <time>2016-11-20T15:00:34Z</time>
      </trkpt>
      <trkpt lat="43.62064" lon="1.31142">
        <ele>164.04</ele>
        <time>2016-11-20T15:00:35Z</time>
      </trkpt>
      <trkpt lat="43.62062" lon="1.31141">
        <ele>164.04</ele>
        <time>2016-11-20T15:00:36Z</time>
      </trkpt>
      <trkpt lat="43.62038" lon="1.31127">
        <ele>163.56</ele>
        <time>2016-11-20T15:00:47Z</time>
      </trkpt>
      <trkpt lat="43.6202" lon="1.31116">
        <ele>164.52</ele>
        <time>2016-11-20T15:00:58Z</time>
      </trkpt>
      <trkpt lat="43.62007" lon="1.31112">
        <ele>166.45</ele>
        <time>2016-11-20T15:01:04Z</time>
      </trkpt>
      <trkpt lat="43.62004" lon="1.31111">
        <ele>166.93</ele>
        <time>2016-11-20T15:01:05Z</time>
      </trkpt>
      <trkpt lat="43.62001" lon="1.31111">
        <ele>167.41</ele>
        <time>2016-11-20T15:01:06Z</time>
      </trkpt>
      <trkpt lat="43.61998" lon="1.3111">
        <ele>167.41</ele>
        <time>2016-11-20T15:01:07Z</time>
      </trkpt>
      <trkpt lat="43.61995" lon="1.31109">
        <ele>167.89</ele>
        <time>2016-11-20T15:01:08Z</time>
      </trkpt>
      <trkpt lat="43.6196" lon="1.31111">
        <ele>166.45</ele>
        <time>2016-11-20T15:01:21Z</time>
      </trkpt>
      <trkpt lat="43.6193" lon="1.31117">
        <ele>166.45</ele>
        <time>2016-11-20T15:01:32Z</time>
      </trkpt>
      <trkpt lat="43.61906" lon="1.31123">
        <ele>166.45</ele>
        <time>2016-11-20T15:01:42Z</time>
      </trkpt>
      <trkpt lat="43.61877" lon="1.31135">
        <ele>165.96</ele>
        <time>2016-11-20T15:01:56Z</time>
      </trkpt>
      <trkpt lat="43.61846" lon="1.31145">
        <ele>165.96</ele>
        <time>2016-11-20T15:02:08Z</time>
      </trkpt>
      <trkpt lat="43.61825" lon="1.31155">
        <ele>165.96</ele>
        <time>2016-11-20T15:02:18Z</time>
      </trkpt>
      <trkpt lat="43.61795" lon="1.31162">
        <ele>166.45</ele>
        <time>2016-11-20T15:02:30Z</time>
      </trkpt>
      <trkpt lat="43.61757" lon="1.31168">
        <ele>166.93</ele>
        <time>2016-11-20T15:02:44Z</time>
      </trkpt>
      <trkpt lat="43.61729" lon="1.31184">
        <ele>167.41</ele>
        <time>2016-11-20T15:02:57Z</time>
      </trkpt>
      <trkpt lat="43.61709" lon="1.31201">
        <ele>167.41</ele>
        <time>2016-11-20T15:03:06Z</time>
      </trkpt>
      <trkpt lat="43.61677" lon="1.31205">
        <ele>167.89</ele>
        <time>2016-11-20T15:03:19Z</time>
      </trkpt>
      <trkpt lat="43.6167" lon="1.31203">
        <ele>168.85</ele>
        <time>2016-11-20T15:03:24Z</time>
      </trkpt>
      <trkpt lat="43.61667" lon="1.31204">
        <ele>168.85</ele>
        <time>2016-11-20T15:03:25Z</time>
      </trkpt>
      <trkpt lat="43.61663" lon="1.31207">
        <ele>168.85</ele>
        <time>2016-11-20T15:03:27Z</time>
      </trkpt>
      <trkpt lat="43.61661" lon="1.31209">
        <ele>168.85</ele>
        <time>2016-11-20T15:03:28Z</time>
      </trkpt>
      <trkpt lat="43.61659" lon="1.31211">
        <ele>168.85</ele>
        <time>2016-11-20T15:03:29Z</time>
      </trkpt>
      <trkpt lat="43.61658" lon="1.31213">
        <ele>168.85</ele>
        <time>2016-11-20T15:03:30Z</time>
      </trkpt>
      <trkpt lat="43.61655" lon="1.31214">
        <ele>168.85</ele>
        <time>2016-11-20T15:03:31Z</time>
      </trkpt>
      <trkpt lat="43.61653" lon="1.31215">
        <ele>168.85</ele>
        <time>2016-11-20T15:03:32Z</time>
      </trkpt>
      <trkpt lat="43.61651" lon="1.31216">
        <ele>168.85</ele>
        <time>2016-11-20T15:03:33Z</time>
      </trkpt>
      <trkpt lat="43.61649" lon="1.31217">
        <ele>168.85</ele>
        <time>2016-11-20T15:03:34Z</time>
      </trkpt>
      <trkpt lat="43.61647" lon="1.31219">
        <ele>168.85</ele>
        <time>2016-11-20T15:03:35Z</time>
      </trkpt>
      <trkpt lat="43.61645" lon="1.31219">
        <ele>168.85</ele>
        <time>2016-11-20T15:03:36Z</time>
      </trkpt>
      <trkpt lat="43.61643" lon="1.3122">
        <ele>168.85</ele>
        <time>2016-11-20T15:03:37Z</time>
      </trkpt>
      <trkpt lat="43.61641" lon="1.31221">
        <ele>168.37</ele>
        <time>2016-11-20T15:03:38Z</time>
      </trkpt>
      <trkpt lat="43.61622" lon="1.3123">
        <ele>167.89</ele>
        <time>2016-11-20T15:03:47Z</time>
      </trkpt>
      <trkpt lat="43.61619" lon="1.3123">
        <ele>167.89</ele>
        <time>2016-11-20T15:03:48Z</time>
      </trkpt>
      <trkpt lat="43.61607" lon="1.31227">
        <ele>167.41</ele>
        <time>2016-11-20T15:03:53Z</time>
      </trkpt>
      <trkpt lat="43.61575" lon="1.3122">
        <ele>166.45</ele>
        <time>2016-11-20T15:04:05Z</time>
      </trkpt>
      <trkpt lat="43.61544" lon="1.31212">
        <ele>169.33</ele>
        <time>2016-11-20T15:04:19Z</time>
      </trkpt>
      <trkpt lat="43.61543" lon="1.31212">
        <ele>169.33</ele>
        <time>2016-11-20T15:04:20Z</time>
      </trkpt>
      <trkpt lat="43.61541" lon="1.31211">
        <ele>169.33</ele>
        <time>2016-11-20T15:04:21Z</time>
      </trkpt>
      <trkpt lat="43.6154" lon="1.3121">
        <ele>169.33</ele>
        <time>2016-11-20T15:04:22Z</time>
      </trkpt>
      <trkpt lat="43.61532" lon="1.31199">
        <ele>170.29</ele>
        <time>2016-11-20T15:04:27Z</time>
      </trkpt>
      <trkpt lat="43.6153" lon="1.31197">
        <ele>170.29</ele>
        <time>2016-11-20T15:04:28Z</time>
      </trkpt>
      <trkpt lat="43.61528" lon="1.31196">
        <ele>170.29</ele>
        <time>2016-11-20T15:04:29Z</time>
      </trkpt>
      <trkpt lat="43.61514" lon="1.31186">
        <ele>170.29</ele>
        <time>2016-11-20T15:04:36Z</time>
      </trkpt>
      <trkpt lat="43.61513" lon="1.31185">
        <ele>170.29</ele>
        <time>2016-11-20T15:04:37Z</time>
      </trkpt>
      <trkpt lat="43.61508" lon="1.31173">
        <ele>169.33</ele>
        <time>2016-11-20T15:04:43Z</time>
      </trkpt>
      <trkpt lat="43.61507" lon="1.3117">
        <ele>169.33</ele>
        <time>2016-11-20T15:04:44Z</time>
      </trkpt>
      <trkpt lat="43.615" lon="1.31154">
        <ele>170.29</ele>
        <time>2016-11-20T15:05:02Z</time>
      </trkpt>
    </trkseg>
  </trk>
</gpx>